Apiliotis — SYVY — position and weather

sailwx.info

Track history (hours):
 
Tides and Currents Weather Stations Pressure Air Temp Water Temp Dewpoint Dewpoint Depression Visibility Wind Speed Wind Dir Waves Ship Positions

Apiliotis

Last reported at 2014-Dec-21 04:04 UTC. Time now 2014-Dec-21 09:17 UTC.
Position N 37°42' E 026°23'.

Length 79 m; draft 4.5 m.

Type: Ship. MMSI: 240438000.

Date/timePositionNaut miles runAvg speedWind from/ knotsBaromVisibWave heightAir tempDewpointWater temp
2014-Dec-21 04:04N 37°42' E 026°23'611.3
2014-Dec-21 03:33N 37°37' E 026°23'1010.5
2014-Dec-21 02:33N 37°27' E 026°28'1110.7
2014-Dec-21 01:33N 37°20' E 026°38'4 1.5
2014-Dec-20 22:32N 37°19' E 026°33'2 0.3
2014-Dec-20 16:21N 37°18' E 026°35'44 2.9
2014-Dec-20 01:27N 36°35' E 026°45'910.4
2014-Dec-20 00:33N 36°33' E 026°34'10 0.9
2014-Dec-19 14:09N 36°32' E 026°23'4 6.7
2014-Dec-19 13:33N 36°30' E 026°19'1211.5
2014-Dec-19 12:33N 36°30' E 026°04'1111.3
2014-Dec-19 11:33N 36°30' E 025°50'1111.3
2014-Dec-19 10:33N 36°30' E 025°36'1111.2
2014-Dec-19 09:33N 36°29' E 025°22'7 6.7
2014-Dec-19 08:33N 36°23' E 025°26'0 0.0
2014-Dec-19 07:33N 36°23' E 025°26'0 0.0
2014-Dec-19 06:33N 36°23' E 025°26'0 0.0
2014-Dec-19 05:33N 36°23' E 025°26'0 0.0
2014-Dec-19 04:34N 36°23' E 025°26'0 0.0
2014-Dec-19 03:34N 36°23' E 025°26'0 0.0
2014-Dec-19 02:33N 36°23' E 025°26'0 0.0
2014-Dec-19 01:33N 36°23' E 025°26'0 0.0
2014-Dec-19 00:32N 36°23' E 025°26'0 0.0
2014-Dec-18 23:32N 36°23' E 025°26'0 0.0
2014-Dec-18 22:32N 36°23' E 025°26'0 0.0
2014-Dec-18 21:32N 36°23' E 025°26'0 0.0
2014-Dec-18 20:33N 36°23' E 025°26'1 1.3
2014-Dec-18 19:33N 36°24' E 025°25'1010.1
2014-Dec-18 18:32N 36°35' E 025°23'1111.0
2014-Dec-18 17:33N 36°45' E 025°24'1211.8
2014-Dec-18 16:33N 36°57' E 025°19'1010.0
2014-Dec-18 15:33N 37°06' E 025°21'1 0.9
2014-Dec-18 14:33N 37°06' E 025°22'0 0.0
2014-Dec-18 13:33N 37°06' E 025°22'0 0.0
2014-Dec-18 12:33N 37°06' E 025°22'0 0.0
2014-Dec-18 11:33N 37°06' E 025°22'4 3.7
2014-Dec-18 10:32N 37°09' E 025°19'9 8.8
2014-Dec-18 09:28N 37°07' E 025°08'2 1.7
2014-Dec-18 08:21N 37°06' E 025°09'0 0.0
2014-Dec-18 07:30N 37°06' E 025°09'0 0.4
2014-Dec-18 06:06N 37°05' E 025°09'0 0.1
2014-Dec-18 05:25N 37°05' E 025°09'0 0.2
2014-Dec-18 03:31N 37°06' E 025°09'0 0.0
2014-Dec-18 02:26N 37°06' E 025°09'0 0.0
2014-Dec-18 01:33N 37°06' E 025°09'0 0.0
2014-Dec-18 00:34N 37°06' E 025°09'0 0.0
2014-Dec-17 23:32N 37°06' E 025°09'0 0.0
2014-Dec-17 22:22N 37°06' E 025°09'0 0.0
2014-Dec-17 21:33N 37°06' E 025°09'0 0.0
2014-Dec-17 20:32N 37°06' E 025°08'0 0.0
2014-Dec-17 19:29N 37°06' E 025°09'0 0.0
2014-Dec-17 18:32N 37°06' E 025°09'7 7.1
2014-Dec-17 17:34N 37°12' E 025°07'10 9.9
2014-Dec-17 16:33N 37°22' E 025°08'10 9.9
2014-Dec-17 15:33N 37°32' E 025°09'0 0.1
2014-Dec-17 14:33N 37°32' E 025°09'0 0.0
2014-Dec-17 13:33N 37°32' E 025°09'0 0.1
2014-Dec-17 12:33N 37°32' E 025°09'9 9.0
2014-Dec-17 11:33N 37°28' E 024°60'3 3.0
2014-Dec-17 10:32N 37°26' E 024°56'0 0.0
2014-Dec-17 09:33N 37°26' E 024°56'0 0.0
2014-Dec-17 08:33N 37°26' E 024°56'0 0.0
2014-Dec-17 07:32N 37°26' E 024°56'0 0.0
2014-Dec-17 06:33N 37°26' E 024°56'3 3.1
2014-Dec-17 05:33N 37°26' E 025°00'9 8.6
2014-Dec-17 04:27N 37°18' E 024°54'1010.6
2014-Dec-17 03:33N 37°11' E 024°46'32 3.9
2014-Dec-16 19:20N 36°43' E 024°28'0 0.0
2014-Dec-16 18:18N 36°43' E 024°28'1 0.2
2014-Dec-16 15:33N 36°43' E 024°27'5 5.4
2014-Dec-16 14:33N 36°48' E 024°26'1111.4
2014-Dec-16 13:33N 36°57' E 024°35'5 5.0
2014-Dec-16 12:33N 36°59' E 024°40'3 1.3
2014-Dec-16 10:23N 36°60' E 024°37'1012.0
2014-Dec-16 09:33N 37°05' E 024°26'1111.4
2014-Dec-16 08:33N 37°15' E 024°20'1211.7
2014-Dec-16 07:33N 37°26' E 024°15'10 9.7
2014-Dec-16 06:33N 37°33' E 024°06'1211.7
2014-Dec-16 05:33N 37°37' E 023°52'1111.3
2014-Dec-16 04:33N 37°43' E 023°40'1110.7
2014-Dec-16 03:33N 37°50' E 023°30'1712.1
2014-Dec-16 02:08N 37°54' E 023°09'3 4.5
2014-Dec-16 01:29N 37°55' E 023°05'0 0.0
2014-Dec-16 00:31N 37°55' E 023°05'0 0.0
2014-Dec-15 23:33N 37°55' E 023°05'0 0.0
2014-Dec-15 22:33N 37°55' E 023°05'0 0.0
2014-Dec-15 21:33N 37°55' E 023°05'0 0.0
2014-Dec-15 20:33N 37°55' E 023°05'0 0.0
2014-Dec-15 19:33N 37°55' E 023°05'0 0.0
2014-Dec-15 18:33N 37°55' E 023°05'0 0.0
2014-Dec-15 17:33N 37°55' E 023°05'0 0.0
2014-Dec-15 16:33N 37°55' E 023°05'0 0.0
2014-Dec-15 15:33N 37°55' E 023°05'1 0.9
2014-Dec-15 14:33N 37°55' E 023°06'0 0.2
2014-Dec-15 13:12N 37°55' E 023°06'0 0.1
2014-Dec-15 11:08N 37°55' E 023°06'610.9
2014-Dec-15 10:33N 37°55' E 023°14'9 9.5
2014-Dec-15 09:33N 37°59' E 023°25'6 5.8
2014-Dec-15 08:33N 38°02' E 023°32'0 0.0
2014-Dec-15 07:33N 38°02' E 023°32'0 0.0
2014-Dec-15 06:33N 38°02' E 023°32'0 0.0
2014-Dec-15 05:33N 38°02' E 023°32'0 0.0
2014-Dec-15 04:33N 38°02' E 023°32'0 0.0
2014-Dec-15 03:33N 38°02' E 023°32'0 0.0
2014-Dec-15 02:33N 38°02' E 023°32'0 0.0
2014-Dec-15 01:33N 38°02' E 023°32'0 0.0
2014-Dec-15 00:33N 38°02' E 023°32'0 0.0
2014-Dec-14 23:33N 38°02' E 023°32'0 0.0
2014-Dec-14 22:33N 38°02' E 023°32'0 0.0
2014-Dec-14 21:33N 38°02' E 023°32'0 0.0
2014-Dec-14 20:33N 38°02' E 023°32'0 0.0
2014-Dec-14 19:33N 38°02' E 023°32'0 0.0
2014-Dec-14 18:33N 38°02' E 023°32'0 0.0
2014-Dec-14 17:33N 38°02' E 023°32'0 0.0
2014-Dec-14 16:33N 38°02' E 023°32'0 0.1
2014-Dec-14 15:33N 38°02' E 023°32'0 0.0
2014-Dec-14 14:33N 38°02' E 023°32'0 0.0
2014-Dec-14 13:33N 38°02' E 023°32'0 0.0
2014-Dec-14 12:33N 38°02' E 023°32'0 0.0
2014-Dec-14 11:33N 38°02' E 023°32'0 0.0
2014-Dec-14 10:33N 38°02' E 023°32'0 0.0
2014-Dec-14 09:33N 38°02' E 023°32'0 0.0
2014-Dec-14 08:33N 38°02' E 023°32'0 0.0
2014-Dec-14 07:33N 38°02' E 023°32'0 0.0
2014-Dec-14 06:33N 38°02' E 023°32'0 0.0
2014-Dec-14 05:33N 38°02' E 023°32'0 0.0
2014-Dec-14 04:33N 38°02' E 023°32'0 0.0
2014-Dec-14 03:33N 38°02' E 023°32'0 0.0
2014-Dec-14 02:33N 38°02' E 023°32'0 0.0
2014-Dec-14 01:33N 38°02' E 023°32'0 0.0
2014-Dec-14 00:33N 38°02' E 023°32'0 0.0
2014-Dec-13 23:33N 38°02' E 023°32'0 0.0
2014-Dec-13 22:33N 38°02' E 023°32'0 0.0
2014-Dec-13 21:33N 38°02' E 023°32'0 0.0
2014-Dec-13 20:33N 38°02' E 023°32'0 0.0
2014-Dec-13 19:33N 38°02' E 023°32'0 0.0
2014-Dec-13 18:33N 38°02' E 023°32'0 0.0
2014-Dec-13 17:33N 38°02' E 023°32'0 0.0
2014-Dec-13 16:33N 38°02' E 023°32'0 0.0
2014-Dec-13 15:33N 38°02' E 023°32'0 0.0
2014-Dec-13 14:33N 38°02' E 023°32'0 0.0
2014-Dec-13 13:33N 38°02' E 023°32'0 0.0
2014-Dec-13 12:33N 38°02' E 023°32'0 0.0
2014-Dec-13 11:33N 38°02' E 023°32'0 0.0
2014-Dec-13 10:33N 38°02' E 023°32'0 0.0
2014-Dec-13 09:33N 38°02' E 023°32'0 0.0
2014-Dec-13 08:33N 38°02' E 023°32'0 0.0
2014-Dec-13 07:33N 38°02' E 023°32'0 0.0
2014-Dec-13 06:33N 38°02' E 023°32'0 0.0
2014-Dec-13 05:33N 38°02' E 023°32'0 0.0
2014-Dec-13 04:33N 38°02' E 023°32'0 0.0
2014-Dec-13 03:33N 38°02' E 023°32'0 0.0
2014-Dec-13 02:33N 38°02' E 023°32'0 0.0
2014-Dec-13 01:33N 38°02' E 023°32'0 0.0
2014-Dec-13 00:33N 38°02' E 023°32'0 0.0
2014-Dec-12 23:33N 38°02' E 023°32'0 0.0
2014-Dec-12 22:33N 38°02' E 023°32'0 0.0
2014-Dec-12 21:33N 38°02' E 023°32'0 0.0
2014-Dec-12 20:33N 38°02' E 023°32'0 0.0
2014-Dec-12 19:33N 38°02' E 023°32'0 0.0
2014-Dec-12 18:33N 38°02' E 023°32'0 0.0
2014-Dec-12 17:33N 38°02' E 023°32'0 0.0
2014-Dec-12 16:33N 38°02' E 023°32'0 0.0
2014-Dec-12 15:33N 38°02' E 023°32'0 0.0
2014-Dec-12 14:33N 38°02' E 023°32'0 0.0
2014-Dec-12 13:33N 38°02' E 023°32'0 0.0
2014-Dec-12 12:33N 38°02' E 023°32'0 0.4
2014-Dec-12 11:33N 38°02' E 023°32'0 0.0
2014-Dec-12 10:33N 38°02' E 023°32'0 0.0
2014-Dec-12 09:33N 38°02' E 023°32'0 0.0
2014-Dec-12 08:33N 38°02' E 023°32'0 0.0
2014-Dec-12 07:33N 38°02' E 023°32'0 0.0
2014-Dec-12 06:33N 38°02' E 023°32'7 6.9
2014-Dec-12 05:33N 37°55' E 023°35'4 4.1
2014-Dec-12 04:34N 37°52' E 023°38'8 8.4
2014-Dec-12 03:33N 37°45' E 023°43'8 8.2
2014-Dec-12 02:33N 37°39' E 023°51'9 8.7
2014-Dec-12 01:33N 37°37' E 024°01'10 9.2
2014-Dec-12 00:27N 37°41' E 024°13'1010.7
2014-Dec-11 23:33N 37°47' E 024°23'1110.7
2014-Dec-11 22:33N 37°50' E 024°35'20 2.4
2014-Dec-11 14:20N 38°04' E 024°54'1011.5
2014-Dec-11 13:29N 38°08' E 025°05'  
Track history (hours):
 
Tides and Currents Weather Stations Pressure Air Temp Water Temp Dewpoint Dewpoint Depression Visibility Wind Speed Wind Dir Waves Ship Positions

Apiliotis

Last reported at 2014-Dec-21 04:04 UTC. Time now 2014-Dec-21 09:17 UTC.
Position N 37°42' E 026°23'.

Length 79 m; draft 4.5 m.

Type: Ship. MMSI: 240438000.

Date/timePositionNaut miles runAvg speedWind from/ knotsBaromVisibWave heightAir tempDewpointWater temp
2014-Dec-21 04:04N 37°42' E 026°23'611.3
2014-Dec-21 03:33N 37°37' E 026°23'1010.5
2014-Dec-21 02:33N 37°27' E 026°28'1110.7
2014-Dec-21 01:33N 37°20' E 026°38'4 1.5
2014-Dec-20 22:32N 37°19' E 026°33'2 0.3
2014-Dec-20 16:21N 37°18' E 026°35'44 2.9
2014-Dec-20 01:27N 36°35' E 026°45'910.4
2014-Dec-20 00:33N 36°33' E 026°34'10 0.9
2014-Dec-19 14:09N 36°32' E 026°23'4 6.7
2014-Dec-19 13:33N 36°30' E 026°19'1211.5
2014-Dec-19 12:33N 36°30' E 026°04'1111.3
2014-Dec-19 11:33N 36°30' E 025°50'1111.3
2014-Dec-19 10:33N 36°30' E 025°36'1111.2
2014-Dec-19 09:33N 36°29' E 025°22'7 6.7
2014-Dec-19 08:33N 36°23' E 025°26'0 0.0
2014-Dec-19 07:33N 36°23' E 025°26'0 0.0
2014-Dec-19 06:33N 36°23' E 025°26'0 0.0
2014-Dec-19 05:33N 36°23' E 025°26'0 0.0
2014-Dec-19 04:34N 36°23' E 025°26'0 0.0
2014-Dec-19 03:34N 36°23' E 025°26'0 0.0
2014-Dec-19 02:33N 36°23' E 025°26'0 0.0
2014-Dec-19 01:33N 36°23' E 025°26'0 0.0
2014-Dec-19 00:32N 36°23' E 025°26'0 0.0
2014-Dec-18 23:32N 36°23' E 025°26'0 0.0
2014-Dec-18 22:32N 36°23' E 025°26'0 0.0
2014-Dec-18 21:32N 36°23' E 025°26'0 0.0
2014-Dec-18 20:33N 36°23' E 025°26'1 1.3
2014-Dec-18 19:33N 36°24' E 025°25'1010.1
2014-Dec-18 18:32N 36°35' E 025°23'1111.0
2014-Dec-18 17:33N 36°45' E 025°24'1211.8
2014-Dec-18 16:33N 36°57' E 025°19'1010.0
2014-Dec-18 15:33N 37°06' E 025°21'1 0.9
2014-Dec-18 14:33N 37°06' E 025°22'0 0.0
2014-Dec-18 13:33N 37°06' E 025°22'0 0.0
2014-Dec-18 12:33N 37°06' E 025°22'0 0.0
2014-Dec-18 11:33N 37°06' E 025°22'4 3.7
2014-Dec-18 10:32N 37°09' E 025°19'9 8.8
2014-Dec-18 09:28N 37°07' E 025°08'2 1.7
2014-Dec-18 08:21N 37°06' E 025°09'0 0.0
2014-Dec-18 07:30N 37°06' E 025°09'0 0.4
2014-Dec-18 06:06N 37°05' E 025°09'0 0.1
2014-Dec-18 05:25N 37°05' E 025°09'0 0.2
2014-Dec-18 03:31N 37°06' E 025°09'0 0.0
2014-Dec-18 02:26N 37°06' E 025°09'0 0.0
2014-Dec-18 01:33N 37°06' E 025°09'0 0.0
2014-Dec-18 00:34N 37°06' E 025°09'0 0.0
2014-Dec-17 23:32N 37°06' E 025°09'0 0.0
2014-Dec-17 22:22N 37°06' E 025°09'0 0.0
2014-Dec-17 21:33N 37°06' E 025°09'0 0.0
2014-Dec-17 20:32N 37°06' E 025°08'0 0.0
2014-Dec-17 19:29N 37°06' E 025°09'0 0.0
2014-Dec-17 18:32N 37°06' E 025°09'7 7.1
2014-Dec-17 17:34N 37°12' E 025°07'10 9.9
2014-Dec-17 16:33N 37°22' E 025°08'10 9.9
2014-Dec-17 15:33N 37°32' E 025°09'0 0.1
2014-Dec-17 14:33N 37°32' E 025°09'0 0.0
2014-Dec-17 13:33N 37°32' E 025°09'0 0.1
2014-Dec-17 12:33N 37°32' E 025°09'9 9.0
2014-Dec-17 11:33N 37°28' E 024°60'3 3.0
2014-Dec-17 10:32N 37°26' E 024°56'0 0.0
2014-Dec-17 09:33N 37°26' E 024°56'0 0.0
2014-Dec-17 08:33N 37°26' E 024°56'0 0.0
2014-Dec-17 07:32N 37°26' E 024°56'0 0.0
2014-Dec-17 06:33N 37°26' E 024°56'3 3.1
2014-Dec-17 05:33N 37°26' E 025°00'9 8.6
2014-Dec-17 04:27N 37°18' E 024°54'1010.6
2014-Dec-17 03:33N 37°11' E 024°46'32 3.9
2014-Dec-16 19:20N 36°43' E 024°28'0 0.0
2014-Dec-16 18:18N 36°43' E 024°28'1 0.2
2014-Dec-16 15:33N 36°43' E 024°27'5 5.4
2014-Dec-16 14:33N 36°48' E 024°26'1111.4
2014-Dec-16 13:33N 36°57' E 024°35'5 5.0
2014-Dec-16 12:33N 36°59' E 024°40'3 1.3
2014-Dec-16 10:23N 36°60' E 024°37'1012.0
2014-Dec-16 09:33N 37°05' E 024°26'1111.4
2014-Dec-16 08:33N 37°15' E 024°20'1211.7
2014-Dec-16 07:33N 37°26' E 024°15'10 9.7
2014-Dec-16 06:33N 37°33' E 024°06'1211.7
2014-Dec-16 05:33N 37°37' E 023°52'1111.3
2014-Dec-16 04:33N 37°43' E 023°40'1110.7
2014-Dec-16 03:33N 37°50' E 023°30'1712.1
2014-Dec-16 02:08N 37°54' E 023°09'3 4.5
2014-Dec-16 01:29N 37°55' E 023°05'0 0.0
2014-Dec-16 00:31N 37°55' E 023°05'0 0.0
2014-Dec-15 23:33N 37°55' E 023°05'0 0.0
2014-Dec-15 22:33N 37°55' E 023°05'0 0.0
2014-Dec-15 21:33N 37°55' E 023°05'0 0.0
2014-Dec-15 20:33N 37°55' E 023°05'0 0.0
2014-Dec-15 19:33N 37°55' E 023°05'0 0.0
2014-Dec-15 18:33N 37°55' E 023°05'0 0.0
2014-Dec-15 17:33N 37°55' E 023°05'0 0.0
2014-Dec-15 16:33N 37°55' E 023°05'0 0.0
2014-Dec-15 15:33N 37°55' E 023°05'1 0.9
2014-Dec-15 14:33N 37°55' E 023°06'0 0.2
2014-Dec-15 13:12N 37°55' E 023°06'0 0.1
2014-Dec-15 11:08N 37°55' E 023°06'610.9
2014-Dec-15 10:33N 37°55' E 023°14'9 9.5
2014-Dec-15 09:33N 37°59' E 023°25'6 5.8
2014-Dec-15 08:33N 38°02' E 023°32'0 0.0
2014-Dec-15 07:33N 38°02' E 023°32'0 0.0
2014-Dec-15 06:33N 38°02' E 023°32'0 0.0
2014-Dec-15 05:33N 38°02' E 023°32'0 0.0
2014-Dec-15 04:33N 38°02' E 023°32'0 0.0
2014-Dec-15 03:33N 38°02' E 023°32'0 0.0
2014-Dec-15 02:33N 38°02' E 023°32'0 0.0
2014-Dec-15 01:33N 38°02' E 023°32'0 0.0
2014-Dec-15 00:33N 38°02' E 023°32'0 0.0
2014-Dec-14 23:33N 38°02' E 023°32'0 0.0
2014-Dec-14 22:33N 38°02' E 023°32'0 0.0
2014-Dec-14 21:33N 38°02' E 023°32'0 0.0
2014-Dec-14 20:33N 38°02' E 023°32'0 0.0
2014-Dec-14 19:33N 38°02' E 023°32'0 0.0
2014-Dec-14 18:33N 38°02' E 023°32'0 0.0
2014-Dec-14 17:33N 38°02' E 023°32'0 0.0
2014-Dec-14 16:33N 38°02' E 023°32'0 0.1
2014-Dec-14 15:33N 38°02' E 023°32'0 0.0
2014-Dec-14 14:33N 38°02' E 023°32'0 0.0
2014-Dec-14 13:33N 38°02' E 023°32'0 0.0
2014-Dec-14 12:33N 38°02' E 023°32'0 0.0
2014-Dec-14 11:33N 38°02' E 023°32'0 0.0
2014-Dec-14 10:33N 38°02' E 023°32'0 0.0
2014-Dec-14 09:33N 38°02' E 023°32'0 0.0
2014-Dec-14 08:33N 38°02' E 023°32'0 0.0
2014-Dec-14 07:33N 38°02' E 023°32'0 0.0
2014-Dec-14 06:33N 38°02' E 023°32'0 0.0
2014-Dec-14 05:33N 38°02' E 023°32'0 0.0
2014-Dec-14 04:33N 38°02' E 023°32'0 0.0
2014-Dec-14 03:33N 38°02' E 023°32'0 0.0
2014-Dec-14 02:33N 38°02' E 023°32'0 0.0
2014-Dec-14 01:33N 38°02' E 023°32'0 0.0
2014-Dec-14 00:33N 38°02' E 023°32'0 0.0
2014-Dec-13 23:33N 38°02' E 023°32'0 0.0
2014-Dec-13 22:33N 38°02' E 023°32'0 0.0
2014-Dec-13 21:33N 38°02' E 023°32'0 0.0
2014-Dec-13 20:33N 38°02' E 023°32'0 0.0
2014-Dec-13 19:33N 38°02' E 023°32'0 0.0
2014-Dec-13 18:33N 38°02' E 023°32'0 0.0
2014-Dec-13 17:33N 38°02' E 023°32'0 0.0
2014-Dec-13 16:33N 38°02' E 023°32'0 0.0
2014-Dec-13 15:33N 38°02' E 023°32'0 0.0
2014-Dec-13 14:33N 38°02' E 023°32'0 0.0
2014-Dec-13 13:33N 38°02' E 023°32'0 0.0
2014-Dec-13 12:33N 38°02' E 023°32'0 0.0
2014-Dec-13 11:33N 38°02' E 023°32'0 0.0
2014-Dec-13 10:33N 38°02' E 023°32'0 0.0
2014-Dec-13 09:33N 38°02' E 023°32'0 0.0
2014-Dec-13 08:33N 38°02' E 023°32'0 0.0
2014-Dec-13 07:33N 38°02' E 023°32'0 0.0
2014-Dec-13 06:33N 38°02' E 023°32'0 0.0
2014-Dec-13 05:33N 38°02' E 023°32'0 0.0
2014-Dec-13 04:33N 38°02' E 023°32'0 0.0
2014-Dec-13 03:33N 38°02' E 023°32'0 0.0
2014-Dec-13 02:33N 38°02' E 023°32'0 0.0
2014-Dec-13 01:33N 38°02' E 023°32'0 0.0
2014-Dec-13 00:33N 38°02' E 023°32'0 0.0
2014-Dec-12 23:33N 38°02' E 023°32'0 0.0
2014-Dec-12 22:33N 38°02' E 023°32'0 0.0
2014-Dec-12 21:33N 38°02' E 023°32'0 0.0
2014-Dec-12 20:33N 38°02' E 023°32'0 0.0
2014-Dec-12 19:33N 38°02' E 023°32'0 0.0
2014-Dec-12 18:33N 38°02' E 023°32'0 0.0
2014-Dec-12 17:33N 38°02' E 023°32'0 0.0
2014-Dec-12 16:33N 38°02' E 023°32'0 0.0
2014-Dec-12 15:33N 38°02' E 023°32'0 0.0
2014-Dec-12 14:33N 38°02' E 023°32'0 0.0
2014-Dec-12 13:33N 38°02' E 023°32'0 0.0
2014-Dec-12 12:33N 38°02' E 023°32'0 0.4
2014-Dec-12 11:33N 38°02' E 023°32'0 0.0
2014-Dec-12 10:33N 38°02' E 023°32'0 0.0
2014-Dec-12 09:33N 38°02' E 023°32'0 0.0
2014-Dec-12 08:33N 38°02' E 023°32'0 0.0
2014-Dec-12 07:33N 38°02' E 023°32'0 0.0
2014-Dec-12 06:33N 38°02' E 023°32'7 6.9
2014-Dec-12 05:33N 37°55' E 023°35'4 4.1
2014-Dec-12 04:34N 37°52' E 023°38'8 8.4
2014-Dec-12 03:33N 37°45' E 023°43'8 8.2
2014-Dec-12 02:33N 37°39' E 023°51'9 8.7
2014-Dec-12 01:33N 37°37' E 024°01'10 9.2
2014-Dec-12 00:27N 37°41' E 024°13'1010.7
2014-Dec-11 23:33N 37°47' E 024°23'1110.7
2014-Dec-11 22:33N 37°50' E 024°35'20 2.4
2014-Dec-11 14:20N 38°04' E 024°54'1011.5
2014-Dec-11 13:29N 38°08' E 025°05'  

Dump ship's entire track history